createdAt,value
2024-02-29T00:00:55.680Z,100193.38
2024-02-29T00:03:29.099Z,100187.19
2024-02-29T00:05:57.317Z,100194.84
2024-02-29T00:08:25.425Z,100176.78
2024-02-29T00:11:00.292Z,100237.34
2024-02-29T00:13:28.462Z,100191.97
2024-02-29T00:15:57.012Z,100201.19
2024-02-29T00:18:25.302Z,100185.03
2024-02-29T00:20:53.339Z,100187.78
2024-02-29T00:23:21.565Z,100155.41
2024-02-29T00:25:49.777Z,100205.94
2024-02-29T00:28:18.164Z,100150.94
2024-02-29T00:30:50.558Z,100171.28
2024-02-29T00:33:21.703Z,100172.56
2024-02-29T00:36:04.913Z,100180.09
2024-02-29T00:38:39.059Z,100190.91
2024-02-29T00:41:12.965Z,100174.88
2024-02-29T00:43:45.593Z,100172.84
2024-02-29T00:46:13.594Z,100172.13
2024-02-29T00:48:41.490Z,100198.44
2024-02-29T00:51:09.521Z,100188.03
2024-02-29T00:53:37.455Z,100180.97
2024-02-29T00:56:06.102Z,100202.78
2024-02-29T00:58:39.681Z,100169.44
2024-02-29T01:01:08.463Z,100183.03
2024-02-29T01:03:36.828Z,100162.81
2024-02-29T01:06:05.991Z,100138.69
2024-02-29T01:08:36.916Z,100207.56
2024-02-29T01:11:08.212Z,100166.09
2024-02-29T01:13:36.741Z,100118.13
2024-02-29T01:16:10.908Z,100175.56
2024-02-29T01:18:39.408Z,100175.97
2024-02-29T01:21:13.164Z,100140.84
2024-02-29T01:23:47.064Z,100174.34
2024-02-29T01:26:15.223Z,100177.81
2024-02-29T01:28:45.219Z,100169.00
2024-02-29T01:31:13.483Z,100163.09
2024-02-29T01:33:41.627Z,100144.88
2024-02-29T01:36:09.580Z,100180.00
2024-02-29T01:38:37.542Z,100173.22
2024-02-29T01:41:25.117Z,100158.03
2024-02-29T01:44:11.955Z,100177.72
2024-02-29T01:46:58.557Z,100164.00
2024-02-29T01:49:47.212Z,100156.75
2024-02-29T01:52:16.837Z,100169.31
2024-02-29T01:54:45.069Z,100159.94
2024-02-29T01:57:13.370Z,100161.66
2024-02-29T01:59:41.893Z,100163.09
2024-02-29T02:02:10.021Z,100173.63
2024-02-29T02:04:37.902Z,100150.50
2024-02-29T02:07:06.057Z,100144.56
2024-02-29T02:09:36.557Z,100165.22
2024-02-29T02:12:05.098Z,100095.63
2024-02-29T02:14:37.222Z,100123.47
2024-02-29T02:17:13.663Z,100138.94
2024-02-29T02:19:45.221Z,100141.53
2024-02-29T02:22:13.698Z,100139.03
2024-02-29T02:24:43.792Z,100133.97
2024-02-29T02:27:12.241Z,100105.94
2024-02-29T02:29:47.553Z,100092.47
2024-02-29T02:32:16.775Z,100141.97
2024-02-29T02:34:44.970Z,100136.94
2024-02-29T02:37:13.052Z,100131.91
2024-02-29T02:39:41.064Z,100136.63
2024-02-29T02:42:09.090Z,100146.00
2024-02-29T02:44:37.216Z,100137.50
2024-02-29T02:47:05.375Z,100140.97
2024-02-29T02:49:33.451Z,100147.50
2024-02-29T02:52:04.039Z,100138.13
2024-02-29T02:54:32.153Z,100122.81
2024-02-29T02:57:03.106Z,100120.94
2024-02-29T02:59:31.267Z,100140.16
2024-02-29T03:01:59.159Z,100156.34
2024-02-29T03:04:27.608Z,100152.47
2024-02-29T03:06:55.527Z,100146.72
2024-02-29T03:09:23.644Z,100140.66
2024-02-29T03:11:51.612Z,100149.19
2024-02-29T03:14:24.207Z,100134.47
2024-02-29T03:17:07.624Z,100149.28
2024-02-29T03:19:35.785Z,100116.50
2024-02-29T03:22:12.170Z,100127.63
2024-02-29T03:24:47.839Z,100147.72
2024-02-29T03:27:17.174Z,100151.88
2024-02-29T03:29:46.433Z,100147.22
2024-02-29T03:32:16.465Z,100135.09
2024-02-29T03:35:00.333Z,100102.50
2024-02-29T03:37:32.908Z,100134.09
2024-02-29T03:40:15.355Z,100095.69
2024-02-29T03:42:49.602Z,100129.44
2024-02-29T03:45:27.111Z,100127.44
2024-02-29T03:48:04.934Z,100104.91
2024-02-29T03:50:34.407Z,100110.41
2024-02-29T03:53:06.726Z,100097.09
2024-02-29T03:55:35.409Z,100098.38
2024-02-29T03:58:11.011Z,100052.31
2024-02-29T04:00:44.946Z,100069.25
2024-02-29T04:03:13.513Z,100084.81
2024-02-29T04:05:41.700Z,100134.81
2024-02-29T04:08:14.055Z,100070.41
2024-02-29T04:10:54.783Z,100065.09
2024-02-29T04:13:26.917Z,100078.94
2024-02-29T04:16:03.143Z,100063.31
2024-02-29T04:18:43.243Z,100067.66
2024-02-29T04:21:13.828Z,100069.94
2024-02-29T04:24:05.061Z,100069.41
2024-02-29T04:26:45.281Z,100118.44
2024-02-29T04:32:06.095Z,100080.91
2024-02-29T04:34:37.058Z,100114.78
2024-02-29T04:37:34.220Z,100075.41
2024-02-29T04:40:07.508Z,100099.59
2024-02-29T04:42:42.920Z,100116.03
2024-02-29T04:45:12.211Z,100103.13
2024-02-29T04:47:40.500Z,100094.00
2024-02-29T04:50:11.857Z,100091.13
2024-02-29T04:52:42.942Z,100056.50
2024-02-29T04:55:15.631Z,100047.75
2024-02-29T05:04:53.351Z,100117.03
2024-02-29T05:07:44.815Z,100086.56
2024-02-29T05:10:17.629Z,100113.78
2024-02-29T05:12:54.934Z,100107.66
2024-02-29T05:15:56.372Z,100124.47
2024-02-29T05:18:33.745Z,100128.09
2024-02-29T05:21:03.302Z,100107.56
2024-02-29T05:23:31.424Z,100110.38
2024-02-29T05:25:59.446Z,100107.38
2024-02-29T05:28:27.549Z,100124.19
2024-02-29T05:30:56.004Z,100084.69
2024-02-29T05:33:27.180Z,100082.16
2024-02-29T05:35:59.360Z,100053.97
2024-02-29T05:38:27.478Z,100102.00
2024-02-29T05:40:59.207Z,100110.91
2024-02-29T05:43:33.851Z,100101.59
2024-02-29T05:46:04.649Z,100124.44
2024-02-29T05:48:39.096Z,100113.44
2024-02-29T05:51:09.956Z,100111.88
2024-02-29T05:53:37.980Z,100103.09
2024-02-29T05:56:08.688Z,100081.66
2024-02-29T05:58:38.960Z,100104.00
2024-02-29T06:02:23.045Z,100099.34
2024-02-29T06:05:01.254Z,100097.06
2024-02-29T06:08:39.907Z,100095.56
2024-02-29T06:11:26.493Z,100069.16
2024-02-29T06:13:58.567Z,100052.41
2024-02-29T06:21:14.342Z,100060.53
2024-02-29T06:23:45.720Z,100110.00
2024-02-29T06:26:30.757Z,100065.22
2024-02-29T06:29:05.781Z,100106.38
2024-02-29T06:31:50.976Z,100022.09
2024-02-29T06:34:21.979Z,100052.66
2024-02-29T06:36:54.013Z,100049.09
2024-02-29T06:39:23.639Z,100096.94
2024-02-29T06:44:38.149Z,100030.91
2024-02-29T06:47:13.213Z,100079.84
2024-02-29T06:49:41.676Z,100105.56
2024-02-29T06:52:15.374Z,100070.13
2024-02-29T06:55:06.093Z,100038.16
2024-02-29T06:58:17.630Z,100056.31
2024-02-29T07:00:59.262Z,100057.13
2024-02-29T07:03:43.350Z,100070.72
2024-02-29T07:06:14.707Z,100063.56
2024-02-29T07:08:59.917Z,100103.91
2024-02-29T07:11:42.464Z,100052.63
2024-02-29T07:14:26.440Z,100057.25
2024-02-29T07:16:57.322Z,100069.31
2024-02-29T07:19:29.535Z,100064.25
2024-02-29T07:22:11.043Z,100064.03
2024-02-29T07:24:39.288Z,100096.16
2024-02-29T07:27:07.921Z,100036.22
2024-02-29T07:29:39.031Z,100087.28
2024-02-29T07:32:08.908Z,100085.63
2024-02-29T07:34:44.644Z,100013.34
2024-02-29T07:37:14.532Z,100060.38
2024-02-29T07:39:53.650Z,100084.63
2024-02-29T07:42:45.371Z,100034.06
2024-02-29T07:45:21.009Z,100062.44
2024-02-29T07:47:52.844Z,100057.19
2024-02-29T07:50:22.312Z,100070.03
2024-02-29T07:52:56.937Z,100082.53
2024-02-29T07:55:25.260Z,100043.63
2024-02-29T07:57:57.520Z,100071.03
2024-02-29T08:00:29.674Z,100083.00
2024-02-29T08:02:58.122Z,100036.16
2024-02-29T08:05:32.557Z,100073.56
2024-02-29T08:08:00.892Z,100089.59
2024-02-29T08:10:29.219Z,100043.63
2024-02-29T08:13:12.393Z,100045.44
2024-02-29T08:15:47.501Z,100065.00
2024-02-29T08:18:15.946Z,100079.78
2024-02-29T08:20:46.676Z,100066.84
2024-02-29T08:23:16.120Z,100092.63
2024-02-29T08:25:45.286Z,100062.94
2024-02-29T08:28:13.639Z,100053.53
2024-02-29T08:30:42.457Z,100071.31
2024-02-29T08:33:22.823Z,100058.00
2024-02-29T08:35:52.257Z,100064.72
2024-02-29T08:38:20.646Z,100047.84
2024-02-29T08:40:50.917Z,100078.41
2024-02-29T08:43:20.724Z,100053.41
2024-02-29T08:45:51.500Z,100086.84
2024-02-29T08:48:20.435Z,100066.66
2024-02-29T08:50:52.659Z,100097.00
2024-02-29T08:53:26.037Z,100082.03
2024-02-29T08:56:01.321Z,100100.22
2024-02-29T08:58:35.029Z,100083.75
2024-02-29T09:01:07.048Z,100086.22
2024-02-29T09:03:35.570Z,100088.72
2024-02-29T09:06:06.990Z,100020.34
2024-02-29T09:08:41.868Z,100041.00
2024-02-29T09:11:10.267Z,100042.16
2024-02-29T09:13:40.667Z,100082.09
2024-02-29T09:16:12.355Z,100048.78
2024-02-29T09:18:41.473Z,100054.22
2024-02-29T09:21:12.797Z,100085.56
2024-02-29T09:23:44.049Z,100026.94
2024-02-29T09:26:18.612Z,100022.72
2024-02-29T09:28:47.179Z,100048.34
2024-02-29T09:31:20.043Z,100036.28
2024-02-29T09:33:48.533Z,100069.50
2024-02-29T09:36:18.657Z,100035.81
2024-02-29T09:39:18.906Z,100024.09
2024-02-29T09:42:13.289Z,100089.63
2024-02-29T09:45:15.771Z,100039.19
2024-02-29T09:48:00.430Z,100068.88
2024-02-29T09:50:31.656Z,100058.75
2024-02-29T09:53:03.397Z,100031.50
2024-02-29T09:55:32.297Z,100059.47
2024-02-29T09:58:05.110Z,100063.88
2024-02-29T10:00:37.238Z,100054.28
2024-02-29T10:03:11.514Z,100026.03
2024-02-29T10:05:39.988Z,100034.09
2024-02-29T10:08:30.835Z,100048.06
2024-02-29T10:11:04.235Z,100058.41
2024-02-29T10:14:30.830Z,100035.94
2024-02-29T10:17:24.486Z,100037.91
2024-02-29T10:20:10.730Z,100035.84
2024-02-29T10:23:36.189Z,100061.00
2024-02-29T10:59:22.687Z,100032.91
2024-02-29T11:02:01.743Z,100018.78
2024-02-29T11:05:43.160Z,100040.69
2024-02-29T11:08:54.877Z,100046.91
2024-02-29T11:12:01.637Z,100027.47
2024-02-29T11:15:18.814Z,100095.78
2024-02-29T11:17:53.628Z,100017.59
2024-02-29T11:20:25.971Z,100050.19
2024-02-29T11:24:23.865Z,100075.78
2024-02-29T11:27:39.875Z,100031.19
2024-02-29T11:30:27.252Z,100047.53
2024-02-29T11:33:13.461Z,100080.94
2024-02-29T11:35:58.770Z,100050.88
2024-02-29T11:43:04.850Z,100017.72
2024-02-29T11:45:39.152Z,100046.63
2024-02-29T11:48:10.866Z,100030.03
2024-02-29T11:50:51.631Z,100031.56
2024-02-29T11:53:28.286Z,100041.78
2024-02-29T11:56:55.613Z,100010.06
2024-02-29T12:02:27.823Z,100057.75
2024-02-29T12:05:01.149Z,100009.41
2024-02-29T12:07:29.869Z,100055.88
2024-02-29T12:10:06.423Z,100049.28
2024-02-29T12:12:52.729Z,100073.16
2024-02-29T12:15:43.488Z,100055.09
2024-02-29T12:21:39.763Z,100017.03
2024-02-29T12:24:11.945Z,100035.72
2024-02-29T12:26:43.979Z,100055.44
2024-02-29T12:29:12.796Z,100020.78
2024-02-29T12:32:08.807Z,100065.91
2024-02-29T12:35:05.862Z,100057.97
2024-02-29T12:37:49.034Z,100018.56
2024-02-29T12:40:20.943Z,100025.91
2024-02-29T12:43:06.461Z,100006.13
2024-02-29T12:45:39.720Z,99987.28
2024-02-29T12:48:42.573Z,100060.22
2024-02-29T12:51:14.676Z,100002.91
2024-02-29T12:53:45.966Z,100067.28
2024-02-29T12:56:18.155Z,100056.03
2024-02-29T12:58:56.660Z,100039.88
2024-02-29T13:01:26.146Z,99996.59
2024-02-29T13:04:00.654Z,99998.53
2024-02-29T13:06:31.550Z,100036.97
2024-02-29T13:09:01.325Z,99980.38
2024-02-29T13:11:30.018Z,100018.41
2024-02-29T13:14:00.694Z,100044.84
2024-02-29T13:16:29.123Z,99992.75
2024-02-29T13:19:00.239Z,100000.69
2024-02-29T13:21:31.281Z,100008.63
2024-02-29T13:23:59.877Z,100030.38
2024-02-29T13:26:28.106Z,100040.66
2024-02-29T13:28:59.123Z,100028.72
2024-02-29T13:31:27.596Z,100026.06
2024-02-29T13:34:22.341Z,100035.63
2024-02-29T13:36:50.964Z,100020.13
2024-02-29T13:39:22.172Z,99983.03
2024-02-29T13:41:50.458Z,100032.91
2024-02-29T13:45:05.103Z,100056.16
2024-02-29T13:47:50.445Z,100006.88
2024-02-29T13:50:39.640Z,100010.66
2024-02-29T13:59:35.053Z,100063.25
2024-02-29T14:02:28.017Z,100022.34
2024-02-29T14:05:04.424Z,100047.53
2024-02-29T14:07:34.404Z,100065.56
2024-02-29T14:10:06.045Z,100051.50
2024-02-29T14:12:43.174Z,100046.28
2024-02-29T14:15:27.346Z,100056.34
2024-02-29T14:18:03.001Z,100075.72
2024-02-29T14:21:08.399Z,100051.69
2024-02-29T14:23:41.660Z,100034.94
2024-02-29T14:26:18.852Z,100071.25
2024-02-29T14:29:00.959Z,100027.69
2024-02-29T14:31:50.673Z,100061.78
2024-02-29T14:34:45.681Z,100033.91
2024-02-29T14:38:17.800Z,100067.81
2024-02-29T14:41:04.278Z,100068.97
2024-02-29T14:43:42.318Z,100006.59
2024-02-29T14:47:04.527Z,100005.50
2024-02-29T14:49:34.578Z,99997.28
2024-02-29T14:52:04.381Z,100003.00
2024-02-29T14:54:35.793Z,100030.88
2024-02-29T14:57:35.308Z,100068.50
2024-02-29T15:00:37.037Z,100022.31
2024-02-29T15:03:18.209Z,100075.97
2024-02-29T15:06:16.479Z,100070.19
2024-02-29T15:17:42.690Z,100095.66
2024-02-29T15:20:46.278Z,100095.66
2024-02-29T15:24:12.116Z,100025.84
2024-02-29T15:27:18.621Z,100023.75
2024-02-29T15:29:52.311Z,100060.38
2024-02-29T15:32:22.890Z,100011.88
2024-02-29T15:34:54.113Z,100082.88
2024-02-29T15:40:25.372Z,100063.88
2024-02-29T15:42:54.189Z,100033.19
2024-02-29T15:45:22.383Z,100112.59
2024-02-29T15:47:53.613Z,100108.13
2024-02-29T15:50:26.391Z,100077.94
2024-02-29T15:52:58.287Z,100094.88
2024-02-29T15:55:27.227Z,100084.00
2024-02-29T15:57:56.465Z,100126.19
2024-02-29T16:00:27.998Z,100055.63
2024-02-29T16:02:56.108Z,100124.63
2024-02-29T16:05:24.312Z,100107.38
2024-02-29T16:07:57.829Z,100098.75
2024-02-29T16:10:42.955Z,100078.16
2024-02-29T16:13:18.656Z,100085.25
2024-02-29T16:21:19.715Z,100061.91
2024-02-29T16:31:47.057Z,100123.84
2024-02-29T17:31:05.862Z,100164.75
2024-02-29T17:37:32.393Z,100166.78
2024-02-29T17:40:36.919Z,100170.25
2024-02-29T17:54:59.299Z,100169.03
2024-02-29T17:57:38.422Z,100125.31
2024-02-29T18:04:25.992Z,100120.63
2024-02-29T18:06:31.482Z,100113.34
2024-02-29T18:09:16.133Z,100162.63
2024-02-29T18:12:35.417Z,100148.63
2024-02-29T18:15:33.882Z,100177.97
2024-02-29T18:18:09.032Z,100170.94
2024-02-29T18:21:08.602Z,100174.56
2024-02-29T18:28:49.554Z,100139.72
2024-02-29T18:36:13.966Z,100120.38
2024-02-29T18:38:57.380Z,100123.47
2024-02-29T18:41:38.060Z,100139.19
2024-02-29T18:44:45.769Z,100189.63
2024-02-29T18:47:27.502Z,100159.16
2024-02-29T18:50:06.581Z,100180.75
2024-02-29T18:52:41.299Z,100179.88
2024-02-29T18:55:18.049Z,100180.41
2024-02-29T18:57:54.144Z,100122.34
2024-02-29T19:00:36.796Z,100187.47
2024-02-29T19:03:11.680Z,100171.56
2024-02-29T19:05:53.902Z,100162.22
2024-02-29T19:08:31.842Z,100183.13
2024-02-29T19:11:08.585Z,100159.66
2024-02-29T19:13:46.405Z,100150.03
2024-02-29T19:16:21.847Z,100125.69
2024-02-29T19:18:59.595Z,100137.38
2024-02-29T19:21:33.553Z,100113.72
2024-02-29T19:24:20.334Z,100176.56
2024-02-29T19:27:00.964Z,100146.53
2024-02-29T19:29:43.431Z,100198.03
2024-02-29T19:32:32.652Z,100151.72
2024-02-29T19:39:34.594Z,100193.53
2024-02-29T19:42:44.622Z,100136.09
2024-02-29T19:47:30.876Z,100202.59
2024-02-29T19:56:46.739Z,100200.03
2024-02-29T20:00:19.978Z,100185.00
2024-02-29T20:03:07.006Z,100130.28
2024-02-29T20:06:19.572Z,100158.94
2024-02-29T20:14:08.736Z,100190.38
2024-02-29T20:17:12.291Z,100146.88
2024-02-29T20:33:23.223Z,100203.16
2024-02-29T20:40:31.191Z,100198.84
2024-02-29T20:43:21.278Z,100124.34
2024-02-29T20:46:23.013Z,100125.44
2024-02-29T20:49:38.867Z,100148.06
2024-02-29T20:52:21.307Z,100181.97
2024-02-29T20:59:26.601Z,100215.34
2024-02-29T21:02:32.336Z,100204.28
2024-02-29T21:05:11.371Z,100198.06
2024-02-29T21:07:42.190Z,100167.13
2024-02-29T21:10:14.594Z,100212.59
2024-02-29T21:12:47.294Z,100202.91
2024-02-29T21:15:38.962Z,100153.44
2024-02-29T21:18:08.364Z,100227.31
2024-02-29T21:24:56.297Z,100220.56
2024-02-29T21:27:47.940Z,100180.06
2024-02-29T21:30:21.982Z,100222.47
2024-02-29T21:32:50.696Z,100194.09
2024-02-29T21:35:35.598Z,100172.63
2024-02-29T21:38:10.264Z,100236.63
2024-02-29T21:41:02.454Z,100214.31
2024-02-29T21:43:58.739Z,100179.38
2024-02-29T21:46:40.935Z,100168.50
2024-02-29T21:49:10.308Z,100183.00
2024-02-29T21:51:39.162Z,100202.75
2024-02-29T21:54:08.420Z,100229.72
2024-02-29T21:56:47.052Z,100172.50
2024-02-29T21:59:24.805Z,100162.47
2024-02-29T22:01:58.130Z,100190.63
2024-02-29T22:04:31.787Z,100230.91
2024-02-29T22:07:03.198Z,100203.06
2024-02-29T22:09:36.385Z,100165.38
2024-02-29T22:12:12.243Z,100228.13
2024-02-29T22:14:43.393Z,100197.50
2024-02-29T22:17:16.362Z,100161.72
2024-02-29T22:19:44.664Z,100190.75
2024-02-29T22:22:13.654Z,100203.53
2024-02-29T22:24:42.374Z,100210.13
2024-02-29T22:27:11.823Z,100228.09
2024-02-29T22:29:39.892Z,100212.88
2024-02-29T22:32:10.645Z,100218.22
2024-02-29T22:34:41.671Z,100233.63
2024-02-29T22:37:09.982Z,100233.28
2024-02-29T22:39:38.094Z,100217.34
2024-02-29T22:42:16.408Z,100223.75
2024-02-29T22:44:44.606Z,100196.28
2024-02-29T22:47:12.733Z,100249.53
2024-02-29T22:49:41.381Z,100258.75
2024-02-29T22:52:09.488Z,100248.00
2024-02-29T22:54:37.824Z,100254.75
2024-02-29T22:57:06.347Z,100262.91
2024-02-29T22:59:35.427Z,100246.47
2024-02-29T23:02:07.055Z,100267.91
2024-02-29T23:04:36.788Z,100243.53
2024-02-29T23:07:05.301Z,100258.56
2024-02-29T23:09:35.172Z,100257.19
2024-02-29T23:12:03.663Z,100213.94
2024-02-29T23:14:32.031Z,100254.41
2024-02-29T23:17:00.273Z,100238.84
2024-02-29T23:19:30.955Z,100276.22
2024-02-29T23:22:01.822Z,100235.94
2024-02-29T23:24:30.303Z,100265.31
2024-02-29T23:26:59.006Z,100254.06
2024-02-29T23:29:27.258Z,100266.19
2024-02-29T23:31:58.098Z,100255.66
2024-02-29T23:34:28.063Z,100270.34
2024-02-29T23:36:56.216Z,100234.88
2024-02-29T23:39:25.182Z,100258.56
2024-02-29T23:41:53.564Z,100250.78
2024-02-29T23:44:21.912Z,100231.03
2024-02-29T23:46:50.207Z,100234.00
2024-02-29T23:49:18.405Z,100240.38
2024-02-29T23:51:46.762Z,100224.16
2024-02-29T23:54:17.238Z,100213.59
2024-02-29T23:56:50.059Z,100261.16
2024-02-29T23:59:24.008Z,100185.94
